sensor_id;sensor_type;location;lat;lon;timestamp;temperature;humidity
74934;DHT22;63499;53.232;7.492;2022-10-16T00:00:42;12.20;99.90
74934;DHT22;63499;53.232;7.492;2022-10-16T00:03:09;12.20;99.90
74934;DHT22;63499;53.232;7.492;2022-10-16T00:05:43;12.20;99.90
74934;DHT22;63499;53.232;7.492;2022-10-16T00:08:13;12.20;99.90
74934;DHT22;63499;53.232;7.492;2022-10-16T00:10:40;12.20;99.90
74934;DHT22;63499;53.232;7.492;2022-10-16T00:13:07;12.30;99.90
74934;DHT22;63499;53.232;7.492;2022-10-16T00:15:35;12.20;99.90
74934;DHT22;63499;53.232;7.492;2022-10-16T00:18:03;12.20;99.90
74934;DHT22;63499;53.232;7.492;2022-10-16T01:50:42;11.60;99.90
74934;DHT22;63499;53.232;7.492;2022-10-16T01:53:11;11.50;99.90
74934;DHT22;63499;53.232;7.492;2022-10-16T01:55:42;11.60;99.90
74934;DHT22;63499;53.232;7.492;2022-10-16T01:58:12;11.60;99.90
74934;DHT22;63499;53.232;7.492;2022-10-16T02:00:42;11.60;99.90
74934;DHT22;63499;53.232;7.492;2022-10-16T02:03:11;11.60;99.90
74934;DHT22;63499;53.232;7.492;2022-10-16T02:05:47;11.60;99.90
74934;DHT22;63499;53.232;7.492;2022-10-16T02:08:15;11.60;99.90
74934;DHT22;63499;53.232;7.492;2022-10-16T02:10:41;11.60;99.90
74934;DHT22;63499;53.232;7.492;2022-10-16T02:13:50;11.60;99.90
74934;DHT22;63499;53.232;7.492;2022-10-16T02:16:12;11.60;99.90
74934;DHT22;63499;53.232;7.492;2022-10-16T02:18:39;11.70;99.90
74934;DHT22;63499;53.232;7.492;2022-10-16T02:21:14;11.70;99.90
74934;DHT22;63499;53.232;7.492;2022-10-16T02:23:44;11.70;99.90
74934;DHT22;63499;53.232;7.492;2022-10-16T02:26:15;11.70;99.90
74934;DHT22;63499;53.232;7.492;2022-10-16T02:28:50;11.70;99.90
74934;DHT22;63499;53.232;7.492;2022-10-16T02:31:24;11.70;99.90
74934;DHT22;63499;53.232;7.492;2022-10-16T02:33:55;11.70;99.90
74934;DHT22;63499;53.232;7.492;2022-10-16T02:36:23;11.80;99.90
74934;DHT22;63499;53.232;7.492;2022-10-16T02:38:49;11.80;99.90
74934;DHT22;63499;53.232;7.492;2022-10-16T02:41:16;11.80;99.90
74934;DHT22;63499;53.232;7.492;2022-10-16T02:43:42;11.80;99.90
74934;DHT22;63499;53.232;7.492;2022-10-16T02:46:09;11.80;99.90
74934;DHT22;63499;53.232;7.492;2022-10-16T02:48:35;11.90;99.90
74934;DHT22;63499;53.232;7.492;2022-10-16T02:51:01;11.80;99.90
74934;DHT22;63499;53.232;7.492;2022-10-16T02:53:28;11.90;99.90
74934;DHT22;63499;53.232;7.492;2022-10-16T02:55:55;11.90;99.90
74934;DHT22;63499;53.232;7.492;2022-10-16T02:58:21;11.90;99.90
74934;DHT22;63499;53.232;7.492;2022-10-16T03:00:47;11.90;99.90
74934;DHT22;63499;53.232;7.492;2022-10-16T03:03:14;11.90;99.90
74934;DHT22;63499;53.232;7.492;2022-10-16T03:05:40;11.90;99.90
74934;DHT22;63499;53.232;7.492;2022-10-16T03:08:06;11.90;99.90
74934;DHT22;63499;53.232;7.492;2022-10-16T03:10:32;12.00;99.90
74934;DHT22;63499;53.232;7.492;2022-10-16T03:12:59;12.10;99.90
74934;DHT22;63499;53.232;7.492;2022-10-16T03:15:32;12.10;99.90
74934;DHT22;63499;53.232;7.492;2022-10-16T03:18:04;12.10;99.90
74934;DHT22;63499;53.232;7.492;2022-10-16T03:20:30;12.20;99.90
74934;DHT22;63499;53.232;7.492;2022-10-16T03:22:57;12.30;99.90
74934;DHT22;63499;53.232;7.492;2022-10-16T03:25:23;12.30;99.90
74934;DHT22;63499;53.232;7.492;2022-10-16T03:27:49;12.40;99.90
74934;DHT22;63499;53.232;7.492;2022-10-16T03:30:15;12.40;99.90
74934;DHT22;63499;53.232;7.492;2022-10-16T03:32:44;12.40;99.90
74934;DHT22;63499;53.232;7.492;2022-10-16T03:35:10;12.50;99.90
74934;DHT22;63499;53.232;7.492;2022-10-16T03:37:36;12.60;99.90
74934;DHT22;63499;53.232;7.492;2022-10-16T03:40:04;12.60;99.90
74934;DHT22;63499;53.232;7.492;2022-10-16T03:42:30;12.60;99.90
74934;DHT22;63499;53.232;7.492;2022-10-16T03:44:56;12.70;99.90
74934;DHT22;63499;53.232;7.492;2022-10-16T03:47:22;12.80;99.90
74934;DHT22;63499;53.232;7.492;2022-10-16T03:49:51;12.80;99.90
74934;DHT22;63499;53.232;7.492;2022-10-16T03:52:17;12.80;99.90
74934;DHT22;63499;53.232;7.492;2022-10-16T03:54:44;12.80;99.90
74934;DHT22;63499;53.232;7.492;2022-10-16T03:57:10;12.90;99.90
74934;DHT22;63499;53.232;7.492;2022-10-16T03:59:36;12.90;99.90
74934;DHT22;63499;53.232;7.492;2022-10-16T04:02:02;12.80;99.90
74934;DHT22;63499;53.232;7.492;2022-10-16T04:04:28;12.80;99.90
74934;DHT22;63499;53.232;7.492;2022-10-16T04:06:54;12.90;99.90
74934;DHT22;63499;53.232;7.492;2022-10-16T04:09:21;12.80;99.90
74934;DHT22;63499;53.232;7.492;2022-10-16T04:11:48;12.80;99.90
74934;DHT22;63499;53.232;7.492;2022-10-16T04:14:14;12.80;99.90
74934;DHT22;63499;53.232;7.492;2022-10-16T04:16:41;12.80;99.90
74934;DHT22;63499;53.232;7.492;2022-10-16T04:19:09;12.90;99.90
74934;DHT22;63499;53.232;7.492;2022-10-16T04:21:36;12.90;99.90
74934;DHT22;63499;53.232;7.492;2022-10-16T04:24:03;12.90;99.90
74934;DHT22;63499;53.232;7.492;2022-10-16T04:26:30;12.90;99.90
74934;DHT22;63499;53.232;7.492;2022-10-16T04:28:56;12.90;99.90
74934;DHT22;63499;53.232;7.492;2022-10-16T04:31:22;12.90;99.90
74934;DHT22;63499;53.232;7.492;2022-10-16T04:33:49;12.90;99.90
74934;DHT22;63499;53.232;7.492;2022-10-16T04:36:15;12.80;99.90
74934;DHT22;63499;53.232;7.492;2022-10-16T04:38:48;12.80;99.90
74934;DHT22;63499;53.232;7.492;2022-10-16T04:41:15;12.90;99.90
74934;DHT22;63499;53.232;7.492;2022-10-16T04:43:41;12.90;99.90
74934;DHT22;63499;53.232;7.492;2022-10-16T04:46:07;12.90;99.90
74934;DHT22;63499;53.232;7.492;2022-10-16T04:48:34;12.90;99.90
74934;DHT22;63499;53.232;7.492;2022-10-16T04:51:00;12.90;99.90
74934;DHT22;63499;53.232;7.492;2022-10-16T04:53:26;12.90;99.90
74934;DHT22;63499;53.232;7.492;2022-10-16T04:55:52;12.80;99.90
74934;DHT22;63499;53.232;7.492;2022-10-16T04:58:19;12.70;99.90
74934;DHT22;63499;53.232;7.492;2022-10-16T05:00:45;12.70;99.90
74934;DHT22;63499;53.232;7.492;2022-10-16T05:03:13;12.70;99.90
74934;DHT22;63499;53.232;7.492;2022-10-16T05:05:44;12.70;99.90
74934;DHT22;63499;53.232;7.492;2022-10-16T05:08:14;12.60;99.90
74934;DHT22;63499;53.232;7.492;2022-10-16T05:10:42;12.60;99.90
74934;DHT22;63499;53.232;7.492;2022-10-16T05:13:09;12.60;99.90
74934;DHT22;63499;53.232;7.492;2022-10-16T05:15:35;12.60;99.90
74934;DHT22;63499;53.232;7.492;2022-10-16T05:18:02;12.60;99.90
74934;DHT22;63499;53.232;7.492;2022-10-16T05:20:28;12.60;99.90
74934;DHT22;63499;53.232;7.492;2022-10-16T05:22:55;12.60;99.90
74934;DHT22;63499;53.232;7.492;2022-10-16T05:25:21;12.70;99.90
74934;DHT22;63499;53.232;7.492;2022-10-16T05:27:48;12.70;99.90
74934;DHT22;63499;53.232;7.492;2022-10-16T05:30:15;12.70;99.90
74934;DHT22;63499;53.232;7.492;2022-10-16T05:32:46;12.70;99.90
74934;DHT22;63499;53.232;7.492;2022-10-16T05:35:12;12.70;99.90
74934;DHT22;63499;53.232;7.492;2022-10-16T05:37:38;12.70;99.90
74934;DHT22;63499;53.232;7.492;2022-10-16T05:40:05;12.60;99.90
74934;DHT22;63499;53.232;7.492;2022-10-16T05:42:31;12.60;99.90
74934;DHT22;63499;53.232;7.492;2022-10-16T05:44:57;12.60;99.90
74934;DHT22;63499;53.232;7.492;2022-10-16T05:47:23;12.60;99.90
74934;DHT22;63499;53.232;7.492;2022-10-16T05:49:50;12.60;99.90
74934;DHT22;63499;53.232;7.492;2022-10-16T05:52:16;12.60;99.90
74934;DHT22;63499;53.232;7.492;2022-10-16T05:54:43;12.60;99.90
74934;DHT22;63499;53.232;7.492;2022-10-16T05:57:09;12.50;99.90
74934;DHT22;63499;53.232;7.492;2022-10-16T05:59:35;12.50;99.90
74934;DHT22;63499;53.232;7.492;2022-10-16T06:02:01;12.50;99.90
74934;DHT22;63499;53.232;7.492;2022-10-16T06:04:28;12.50;99.90
74934;DHT22;63499;53.232;7.492;2022-10-16T06:06:57;12.50;99.90
74934;DHT22;63499;53.232;7.492;2022-10-16T06:09:26;12.50;99.90
74934;DHT22;63499;53.232;7.492;2022-10-16T06:11:53;12.50;99.90
74934;DHT22;63499;53.232;7.492;2022-10-16T06:14:19;12.50;99.90
74934;DHT22;63499;53.232;7.492;2022-10-16T06:16:46;12.50;99.90
74934;DHT22;63499;53.232;7.492;2022-10-16T06:19:12;12.50;99.90
74934;DHT22;63499;53.232;7.492;2022-10-16T06:21:38;12.50;99.90
74934;DHT22;63499;53.232;7.492;2022-10-16T06:24:04;12.50;99.90
74934;DHT22;63499;53.232;7.492;2022-10-16T06:26:32;12.60;99.90
74934;DHT22;63499;53.232;7.492;2022-10-16T06:28:59;12.60;99.90
74934;DHT22;63499;53.232;7.492;2022-10-16T06:31:26;12.60;99.90
74934;DHT22;63499;53.232;7.492;2022-10-16T06:33:55;12.60;99.90
74934;DHT22;63499;53.232;7.492;2022-10-16T06:36:22;12.70;99.90
74934;DHT22;63499;53.232;7.492;2022-10-16T06:38:49;12.70;99.90
74934;DHT22;63499;53.232;7.492;2022-10-16T06:41:18;12.70;99.90
74934;DHT22;63499;53.232;7.492;2022-10-16T06:43:47;12.80;99.90
74934;DHT22;63499;53.232;7.492;2022-10-16T06:46:16;12.80;99.90
74934;DHT22;63499;53.232;7.492;2022-10-16T06:48:42;12.90;99.90
74934;DHT22;63499;53.232;7.492;2022-10-16T06:51:12;12.90;99.90
74934;DHT22;63499;53.232;7.492;2022-10-16T06:53:40;12.90;99.90
74934;DHT22;63499;53.232;7.492;2022-10-16T06:56:17;12.90;99.90
74934;DHT22;63499;53.232;7.492;2022-10-16T06:58:46;12.90;99.90
74934;DHT22;63499;53.232;7.492;2022-10-16T07:01:13;13.00;99.90
74934;DHT22;63499;53.232;7.492;2022-10-16T07:03:41;13.00;99.90
74934;DHT22;63499;53.232;7.492;2022-10-16T07:06:09;13.00;99.90
74934;DHT22;63499;53.232;7.492;2022-10-16T07:08:37;13.00;99.90
74934;DHT22;63499;53.232;7.492;2022-10-16T07:11:06;13.00;99.90
74934;DHT22;63499;53.232;7.492;2022-10-16T07:13:36;13.00;99.90
74934;DHT22;63499;53.232;7.492;2022-10-16T07:16:14;13.00;99.90
74934;DHT22;63499;53.232;7.492;2022-10-16T07:18:43;13.00;99.90
74934;DHT22;63499;53.232;7.492;2022-10-16T07:21:19;13.00;99.90
74934;DHT22;63499;53.232;7.492;2022-10-16T07:23:50;13.00;99.90
74934;DHT22;63499;53.232;7.492;2022-10-16T07:26:16;13.10;99.90
74934;DHT22;63499;53.232;7.492;2022-10-16T07:28:43;13.20;99.90
74934;DHT22;63499;53.232;7.492;2022-10-16T07:31:12;13.20;99.90
74934;DHT22;63499;53.232;7.492;2022-10-16T07:33:40;13.20;99.90
74934;DHT22;63499;53.232;7.492;2022-10-16T07:36:09;13.30;99.90
74934;DHT22;63499;53.232;7.492;2022-10-16T07:38:35;13.30;99.90
74934;DHT22;63499;53.232;7.492;2022-10-16T07:41:07;13.40;99.90
74934;DHT22;63499;53.232;7.492;2022-10-16T07:43:33;13.50;99.90
74934;DHT22;63499;53.232;7.492;2022-10-16T07:46:00;13.50;99.90
74934;DHT22;63499;53.232;7.492;2022-10-16T07:48:28;13.50;99.90
74934;DHT22;63499;53.232;7.492;2022-10-16T07:50:59;13.60;99.90
74934;DHT22;63499;53.232;7.492;2022-10-16T07:53:26;13.60;99.90
74934;DHT22;63499;53.232;7.492;2022-10-16T07:55:56;13.60;99.90
74934;DHT22;63499;53.232;7.492;2022-10-16T07:58:22;13.70;99.90
74934;DHT22;63499;53.232;7.492;2022-10-16T08:00:49;13.70;99.90
74934;DHT22;63499;53.232;7.492;2022-10-16T08:03:15;13.80;99.90
74934;DHT22;63499;53.232;7.492;2022-10-16T08:05:41;13.90;99.90
74934;DHT22;63499;53.232;7.492;2022-10-16T08:08:13;14.00;99.90
74934;DHT22;63499;53.232;7.492;2022-10-16T08:10:39;14.00;99.90
74934;DHT22;63499;53.232;7.492;2022-10-16T08:13:05;14.10;99.90
74934;DHT22;63499;53.232;7.492;2022-10-16T08:15:32;14.10;99.90
74934;DHT22;63499;53.232;7.492;2022-10-16T08:18:03;14.20;99.90
74934;DHT22;63499;53.232;7.492;2022-10-16T08:20:31;14.20;99.90
74934;DHT22;63499;53.232;7.492;2022-10-16T08:22:57;14.30;99.90
74934;DHT22;63499;53.232;7.492;2022-10-16T08:25:26;14.30;99.90
74934;DHT22;63499;53.232;7.492;2022-10-16T08:27:52;14.20;99.90
74934;DHT22;63499;53.232;7.492;2022-10-16T08:30:19;14.10;99.90
74934;DHT22;63499;53.232;7.492;2022-10-16T08:32:46;14.10;99.90
74934;DHT22;63499;53.232;7.492;2022-10-16T08:35:13;14.20;99.90
74934;DHT22;63499;53.232;7.492;2022-10-16T08:37:40;14.30;99.90
74934;DHT22;63499;53.232;7.492;2022-10-16T08:40:21;14.30;99.90
74934;DHT22;63499;53.232;7.492;2022-10-16T08:48:54;14.30;99.90
74934;DHT22;63499;53.232;7.492;2022-10-16T08:51:24;14.40;99.90
74934;DHT22;63499;53.232;7.492;2022-10-16T08:56:17;14.70;99.90
74934;DHT22;63499;53.232;7.492;2022-10-16T08:58:46;14.70;99.90
74934;DHT22;63499;53.232;7.492;2022-10-16T09:01:15;14.90;99.90
74934;DHT22;63499;53.232;7.492;2022-10-16T09:06:46;15.30;99.90
74934;DHT22;63499;53.232;7.492;2022-10-16T09:09:23;15.40;99.90
74934;DHT22;63499;53.232;7.492;2022-10-16T09:11:58;15.50;99.90
74934;DHT22;63499;53.232;7.492;2022-10-16T09:14:52;15.50;99.90
74934;DHT22;63499;53.232;7.492;2022-10-16T09:20:28;15.40;99.90
74934;DHT22;63499;53.232;7.492;2022-10-16T09:25:39;15.60;99.90
74934;DHT22;63499;53.232;7.492;2022-10-16T09:28:08;15.80;99.90
74934;DHT22;63499;53.232;7.492;2022-10-16T09:30:35;15.70;99.90
74934;DHT22;63499;53.232;7.492;2022-10-16T09:33:01;15.60;99.90
74934;DHT22;63499;53.232;7.492;2022-10-16T09:35:46;15.70;99.90
74934;DHT22;63499;53.232;7.492;2022-10-16T09:38:31;15.60;99.90
74934;DHT22;63499;53.232;7.492;2022-10-16T09:40:59;15.60;99.90
74934;DHT22;63499;53.232;7.492;2022-10-16T09:43:32;15.60;99.90
74934;DHT22;63499;53.232;7.492;2022-10-16T09:46:06;15.80;99.90
74934;DHT22;63499;53.232;7.492;2022-10-16T09:48:39;16.00;99.90
74934;DHT22;63499;53.232;7.492;2022-10-16T09:51:27;16.20;99.90
74934;DHT22;63499;53.232;7.492;2022-10-16T09:56:30;16.50;99.90
74934;DHT22;63499;53.232;7.492;2022-10-16T09:59:01;16.60;99.90
74934;DHT22;63499;53.232;7.492;2022-10-16T10:01:51;16.70;99.90
74934;DHT22;63499;53.232;7.492;2022-10-16T10:04:19;16.80;99.90
74934;DHT22;63499;53.232;7.492;2022-10-16T11:02:25;16.60;99.90
74934;DHT22;63499;53.232;7.492;2022-10-16T11:08:00;16.50;99.90
74934;DHT22;63499;53.232;7.492;2022-10-16T11:11:20;16.50;99.90
74934;DHT22;63499;53.232;7.492;2022-10-16T11:16:51;16.60;99.90
74934;DHT22;63499;53.232;7.492;2022-10-16T11:30:06;17.20;99.90
74934;DHT22;63499;53.232;7.492;2022-10-16T11:35:23;17.30;99.90
74934;DHT22;63499;53.232;7.492;2022-10-16T11:37:51;17.40;99.90
74934;DHT22;63499;53.232;7.492;2022-10-16T11:40:25;17.50;99.90
74934;DHT22;63499;53.232;7.492;2022-10-16T11:45:50;17.80;99.90
74934;DHT22;63499;53.232;7.492;2022-10-16T11:48:55;17.90;99.90
74934;DHT22;63499;53.232;7.492;2022-10-16T11:51:43;17.90;99.90
74934;DHT22;63499;53.232;7.492;2022-10-16T11:54:32;17.70;99.90
74934;DHT22;63499;53.232;7.492;2022-10-16T11:57:12;17.50;99.90
74934;DHT22;63499;53.232;7.492;2022-10-16T11:59:47;17.30;99.90
74934;DHT22;63499;53.232;7.492;2022-10-16T12:02:28;17.10;99.90
74934;DHT22;63499;53.232;7.492;2022-10-16T12:05:11;17.00;99.90
74934;DHT22;63499;53.232;7.492;2022-10-16T12:10:25;17.10;99.90
74934;DHT22;63499;53.232;7.492;2022-10-16T12:12:52;17.10;99.90
74934;DHT22;63499;53.232;7.492;2022-10-16T12:15:28;17.30;99.90
74934;DHT22;63499;53.232;7.492;2022-10-16T12:17:56;17.50;99.90
74934;DHT22;63499;53.232;7.492;2022-10-16T12:23:04;17.90;99.90
74934;DHT22;63499;53.232;7.492;2022-10-16T12:25:33;18.20;99.90
74934;DHT22;63499;53.232;7.492;2022-10-16T12:28:21;18.40;99.90
74934;DHT22;63499;53.232;7.492;2022-10-16T12:31:06;18.30;99.90
74934;DHT22;63499;53.232;7.492;2022-10-16T12:33:42;18.10;99.90
74934;DHT22;63499;53.232;7.492;2022-10-16T12:36:30;18.10;99.90
74934;DHT22;63499;53.232;7.492;2022-10-16T12:38:57;18.00;99.90
74934;DHT22;63499;53.232;7.492;2022-10-16T12:41:31;18.10;99.90
74934;DHT22;63499;53.232;7.492;2022-10-16T12:43:59;18.10;99.90
74934;DHT22;63499;53.232;7.492;2022-10-16T12:51:40;18.40;99.90
74934;DHT22;63499;53.232;7.492;2022-10-16T12:59:20;18.30;99.90
74934;DHT22;63499;53.232;7.492;2022-10-16T13:02:04;18.30;99.90
74934;DHT22;63499;53.232;7.492;2022-10-16T13:17:02;19.20;99.90
74934;DHT22;63499;53.232;7.492;2022-10-16T13:25:04;20.10;99.90
74934;DHT22;63499;53.232;7.492;2022-10-16T14:30:59;18.20;99.90
74934;DHT22;63499;53.232;7.492;2022-10-16T14:36:05;18.10;99.90
74934;DHT22;63499;53.232;7.492;2022-10-16T14:38:38;18.00;99.90
74934;DHT22;63499;53.232;7.492;2022-10-16T14:41:05;17.80;99.90
74934;DHT22;63499;53.232;7.492;2022-10-16T14:43:41;17.70;99.90
74934;DHT22;63499;53.232;7.492;2022-10-16T14:46:16;17.60;99.90
74934;DHT22;63499;53.232;7.492;2022-10-16T14:48:47;17.50;99.90
74934;DHT22;63499;53.232;7.492;2022-10-16T14:51:19;17.50;99.90
74934;DHT22;63499;53.232;7.492;2022-10-16T14:53:46;17.50;99.90
74934;DHT22;63499;53.232;7.492;2022-10-16T14:56:24;17.40;99.90
74934;DHT22;63499;53.232;7.492;2022-10-16T14:58:51;17.40;99.90
74934;DHT22;63499;53.232;7.492;2022-10-16T15:01:18;17.30;99.90
74934;DHT22;63499;53.232;7.492;2022-10-16T15:03:45;17.20;99.90
74934;DHT22;63499;53.232;7.492;2022-10-16T15:06:13;17.20;99.90
74934;DHT22;63499;53.232;7.492;2022-10-16T15:08:40;17.20;99.90
74934;DHT22;63499;53.232;7.492;2022-10-16T15:11:15;17.20;99.90
74934;DHT22;63499;53.232;7.492;2022-10-16T15:13:41;17.00;99.90
74934;DHT22;63499;53.232;7.492;2022-10-16T15:16:15;16.90;99.90
74934;DHT22;63499;53.232;7.492;2022-10-16T15:18:42;16.80;99.90
74934;DHT22;63499;53.232;7.492;2022-10-16T15:21:28;16.70;99.90
74934;DHT22;63499;53.232;7.492;2022-10-16T15:23:55;16.70;99.90
74934;DHT22;63499;53.232;7.492;2022-10-16T15:26:26;16.60;99.90
74934;DHT22;63499;53.232;7.492;2022-10-16T15:28:53;16.70;99.90
74934;DHT22;63499;53.232;7.492;2022-10-16T15:31:20;16.60;99.90
74934;DHT22;63499;53.232;7.492;2022-10-16T15:33:53;16.60;99.90
74934;DHT22;63499;53.232;7.492;2022-10-16T15:36:29;16.50;99.90
74934;DHT22;63499;53.232;7.492;2022-10-16T15:38:56;16.50;99.90
74934;DHT22;63499;53.232;7.492;2022-10-16T15:41:23;16.50;99.90
74934;DHT22;63499;53.232;7.492;2022-10-16T15:43:50;16.40;99.90
74934;DHT22;63499;53.232;7.492;2022-10-16T15:46:22;16.40;99.90
74934;DHT22;63499;53.232;7.492;2022-10-16T15:48:51;16.30;99.90
74934;DHT22;63499;53.232;7.492;2022-10-16T15:51:21;16.20;99.90
74934;DHT22;63499;53.232;7.492;2022-10-16T15:53:47;16.20;99.90
74934;DHT22;63499;53.232;7.492;2022-10-16T15:56:14;16.20;99.90
74934;DHT22;63499;53.232;7.492;2022-10-16T15:58:42;16.10;99.90
74934;DHT22;63499;53.232;7.492;2022-10-16T16:01:09;16.00;99.90
74934;DHT22;63499;53.232;7.492;2022-10-16T16:03:37;15.90;99.90
74934;DHT22;63499;53.232;7.492;2022-10-16T16:06:07;15.90;99.90
74934;DHT22;63499;53.232;7.492;2022-10-16T16:08:34;15.80;99.90
74934;DHT22;63499;53.232;7.492;2022-10-16T16:11:06;15.70;99.90
74934;DHT22;63499;53.232;7.492;2022-10-16T16:13:40;15.70;99.90
74934;DHT22;63499;53.232;7.492;2022-10-16T16:16:12;15.60;99.90
74934;DHT22;63499;53.232;7.492;2022-10-16T16:18:40;15.60;99.90
74934;DHT22;63499;53.232;7.492;2022-10-16T16:21:15;15.50;99.90
74934;DHT22;63499;53.232;7.492;2022-10-16T16:23:43;15.40;99.90
74934;DHT22;63499;53.232;7.492;2022-10-16T16:26:35;15.40;99.90
74934;DHT22;63499;53.232;7.492;2022-10-16T16:29:13;15.30;99.90
74934;DHT22;63499;53.232;7.492;2022-10-16T16:31:40;15.20;99.90
74934;DHT22;63499;53.232;7.492;2022-10-16T16:34:07;15.10;99.90
74934;DHT22;63499;53.232;7.492;2022-10-16T16:36:34;15.00;99.90
74934;DHT22;63499;53.232;7.492;2022-10-16T16:39:00;15.00;99.90
74934;DHT22;63499;53.232;7.492;2022-10-16T16:41:28;14.90;99.90
74934;DHT22;63499;53.232;7.492;2022-10-16T16:44:01;14.90;99.90
74934;DHT22;63499;53.232;7.492;2022-10-16T16:46:28;14.80;99.90
74934;DHT22;63499;53.232;7.492;2022-10-16T16:48:54;14.80;99.90
74934;DHT22;63499;53.232;7.492;2022-10-16T16:51:21;14.70;99.90
74934;DHT22;63499;53.232;7.492;2022-10-16T16:53:49;14.70;99.90
74934;DHT22;63499;53.232;7.492;2022-10-16T16:56:17;14.60;99.90
74934;DHT22;63499;53.232;7.492;2022-10-16T16:58:52;14.50;99.90
74934;DHT22;63499;53.232;7.492;2022-10-16T17:01:19;14.40;99.90
74934;DHT22;63499;53.232;7.492;2022-10-16T17:03:45;14.40;99.90
74934;DHT22;63499;53.232;7.492;2022-10-16T17:06:13;14.30;99.90
74934;DHT22;63499;53.232;7.492;2022-10-16T17:08:41;14.30;99.90
74934;DHT22;63499;53.232;7.492;2022-10-16T17:11:16;14.20;99.90
74934;DHT22;63499;53.232;7.492;2022-10-16T17:13:43;14.20;99.90
74934;DHT22;63499;53.232;7.492;2022-10-16T17:16:10;14.20;99.90
74934;DHT22;63499;53.232;7.492;2022-10-16T17:18:39;14.10;99.90
74934;DHT22;63499;53.232;7.492;2022-10-16T17:21:09;14.00;99.90
74934;DHT22;63499;53.232;7.492;2022-10-16T17:23:36;13.90;99.90
74934;DHT22;63499;53.232;7.492;2022-10-16T17:26:13;13.90;99.90
74934;DHT22;63499;53.232;7.492;2022-10-16T17:28:40;13.90;99.90
74934;DHT22;63499;53.232;7.492;2022-10-16T17:31:12;13.80;99.90
74934;DHT22;63499;53.232;7.492;2022-10-16T17:33:39;13.80;99.90
74934;DHT22;63499;53.232;7.492;2022-10-16T17:36:06;13.80;99.90
74934;DHT22;63499;53.232;7.492;2022-10-16T17:38:35;13.80;99.90
74934;DHT22;63499;53.232;7.492;2022-10-16T17:41:23;13.80;99.90
74934;DHT22;63499;53.232;7.492;2022-10-16T17:43:50;13.70;99.90
74934;DHT22;63499;53.232;7.492;2022-10-16T17:46:19;13.70;99.90
74934;DHT22;63499;53.232;7.492;2022-10-16T17:48:47;13.60;99.90
74934;DHT22;63499;53.232;7.492;2022-10-16T17:51:17;13.60;99.90
74934;DHT22;63499;53.232;7.492;2022-10-16T17:53:48;13.60;99.90
74934;DHT22;63499;53.232;7.492;2022-10-16T17:56:19;13.50;99.90
74934;DHT22;63499;53.232;7.492;2022-10-16T17:58:50;13.50;99.90
74934;DHT22;63499;53.232;7.492;2022-10-16T18:01:23;13.40;99.90
74934;DHT22;63499;53.232;7.492;2022-10-16T18:03:51;13.40;99.90
74934;DHT22;63499;53.232;7.492;2022-10-16T18:06:18;13.30;99.90
74934;DHT22;63499;53.232;7.492;2022-10-16T18:08:44;13.30;99.90
74934;DHT22;63499;53.232;7.492;2022-10-16T18:11:10;13.30;99.90
74934;DHT22;63499;53.232;7.492;2022-10-16T18:13:37;13.30;99.90
74934;DHT22;63499;53.232;7.492;2022-10-16T18:16:06;13.30;99.90
74934;DHT22;63499;53.232;7.492;2022-10-16T18:18:35;13.20;99.90
74934;DHT22;63499;53.232;7.492;2022-10-16T18:21:04;13.10;99.90
74934;DHT22;63499;53.232;7.492;2022-10-16T18:23:35;13.10;99.90
74934;DHT22;63499;53.232;7.492;2022-10-16T18:26:02;13.10;99.90
74934;DHT22;63499;53.232;7.492;2022-10-16T18:28:33;13.10;99.90
74934;DHT22;63499;53.232;7.492;2022-10-16T18:31:07;13.00;99.90
74934;DHT22;63499;53.232;7.492;2022-10-16T18:33:36;13.00;99.90
74934;DHT22;63499;53.232;7.492;2022-10-16T18:36:08;13.00;99.90
74934;DHT22;63499;53.232;7.492;2022-10-16T18:38:36;13.10;99.90
74934;DHT22;63499;53.232;7.492;2022-10-16T18:41:03;13.00;99.90
74934;DHT22;63499;53.232;7.492;2022-10-16T18:43:34;13.00;99.90
74934;DHT22;63499;53.232;7.492;2022-10-16T18:46:07;13.00;99.90
74934;DHT22;63499;53.232;7.492;2022-10-16T18:48:35;13.00;99.90
74934;DHT22;63499;53.232;7.492;2022-10-16T18:51:13;13.00;99.90
74934;DHT22;63499;53.232;7.492;2022-10-16T18:53:44;13.00;99.90
74934;DHT22;63499;53.232;7.492;2022-10-16T18:56:12;12.90;99.90
74934;DHT22;63499;53.232;7.492;2022-10-16T18:58:42;12.90;99.90
74934;DHT22;63499;53.232;7.492;2022-10-16T19:01:11;12.90;99.90
74934;DHT22;63499;53.232;7.492;2022-10-16T19:03:46;12.80;99.90
74934;DHT22;63499;53.232;7.492;2022-10-16T19:06:16;12.80;99.90
74934;DHT22;63499;53.232;7.492;2022-10-16T19:08:42;12.70;99.90
74934;DHT22;63499;53.232;7.492;2022-10-16T19:11:13;12.70;99.90
74934;DHT22;63499;53.232;7.492;2022-10-16T19:13:41;12.70;99.90
74934;DHT22;63499;53.232;7.492;2022-10-16T19:16:13;12.70;99.90
74934;DHT22;63499;53.232;7.492;2022-10-16T19:18:40;12.70;99.90
74934;DHT22;63499;53.232;7.492;2022-10-16T19:21:12;12.70;99.90
74934;DHT22;63499;53.232;7.492;2022-10-16T19:23:39;12.60;99.90
74934;DHT22;63499;53.232;7.492;2022-10-16T19:26:09;12.60;99.90
74934;DHT22;63499;53.232;7.492;2022-10-16T19:28:36;12.60;99.90
74934;DHT22;63499;53.232;7.492;2022-10-16T19:31:08;12.60;99.90
74934;DHT22;63499;53.232;7.492;2022-10-16T19:33:46;12.60;99.90
74934;DHT22;63499;53.232;7.492;2022-10-16T19:36:14;12.60;99.90
74934;DHT22;63499;53.232;7.492;2022-10-16T19:38:42;12.60;99.90
74934;DHT22;63499;53.232;7.492;2022-10-16T19:41:15;12.60;99.90
74934;DHT22;63499;53.232;7.492;2022-10-16T19:43:42;12.60;99.90
74934;DHT22;63499;53.232;7.492;2022-10-16T19:46:18;12.60;99.90
74934;DHT22;63499;53.232;7.492;2022-10-16T19:48:56;12.60;99.90
74934;DHT22;63499;53.232;7.492;2022-10-16T19:51:23;12.50;99.90
74934;DHT22;63499;53.232;7.492;2022-10-16T19:53:56;12.50;99.90
74934;DHT22;63499;53.232;7.492;2022-10-16T19:56:24;12.50;99.90
74934;DHT22;63499;53.232;7.492;2022-10-16T19:58:53;12.40;99.90
74934;DHT22;63499;53.232;7.492;2022-10-16T20:01:20;12.40;99.90
74934;DHT22;63499;53.232;7.492;2022-10-16T20:03:48;12.40;99.90
74934;DHT22;63499;53.232;7.492;2022-10-16T20:06:17;12.40;99.90
74934;DHT22;63499;53.232;7.492;2022-10-16T20:08:58;12.40;99.90
74934;DHT22;63499;53.232;7.492;2022-10-16T20:11:27;12.40;99.90
74934;DHT22;63499;53.232;7.492;2022-10-16T20:13:54;12.40;99.90
74934;DHT22;63499;53.232;7.492;2022-10-16T20:16:22;12.40;99.90
74934;DHT22;63499;53.232;7.492;2022-10-16T20:18:50;12.40;99.90
74934;DHT22;63499;53.232;7.492;2022-10-16T20:21:26;12.40;99.90
74934;DHT22;63499;53.232;7.492;2022-10-16T20:23:52;12.40;99.90
74934;DHT22;63499;53.232;7.492;2022-10-16T20:26:20;12.40;99.90
74934;DHT22;63499;53.232;7.492;2022-10-16T20:28:47;12.40;99.90
74934;DHT22;63499;53.232;7.492;2022-10-16T20:31:16;12.30;99.90
74934;DHT22;63499;53.232;7.492;2022-10-16T20:33:43;12.30;99.90